Andrews Air Force Base, Maryland
Current Conditions -  °F | °C
As of 2:55 AM on Saturday 20 Dec 2014 (Local Time) from KADW Reporting Station
Clear Clear  
Wind Chill: -5°   Ceiling: Unl
Heat Index: -2°   Visibility: 10mi
Dew Point: -7°   Wind: 6mph
Humidity: 69%   Direction: 320°NW
Pressure: 30.25"   Gusts: NA
Location:  38.8062°N, 76.8756°W
Report Text: KADW 200755Z 32005KT 10SM CLR M02/M07 A3025 RMK AO2A SLP248 T10161067
Loading
Personal Weather Stations






























Interactive Weather Map New forecast layout! Learn more

10-Day Weather Forecast

Advertisements
Track Severe Weather on mobile